sensor_id;sensor_type;location;lat;lon;timestamp;temperature;humidity
12233;DHT22;6179;51.748;8.728;2022-12-26T00:05:07;11.30;98.30
12233;DHT22;6179;51.748;8.728;2022-12-26T00:11:08;11.50;98.30
12233;DHT22;6179;51.748;8.728;2022-12-26T00:17:09;11.30;98.30
12233;DHT22;6179;51.748;8.728;2022-12-26T00:23:10;11.00;98.30
12233;DHT22;6179;51.748;8.728;2022-12-26T00:29:11;11.10;98.30
12233;DHT22;6179;51.748;8.728;2022-12-26T00:35:12;10.70;98.30
12233;DHT22;6179;51.748;8.728;2022-12-26T00:41:14;10.80;98.30
12233;DHT22;6179;51.748;8.728;2022-12-26T00:47:16;10.60;98.30
12233;DHT22;6179;51.748;8.728;2022-12-26T00:53:16;10.40;98.30
12233;DHT22;6179;51.748;8.728;2022-12-26T00:59:18;10.70;98.30
12233;DHT22;6179;51.748;8.728;2022-12-26T01:05:18;10.60;98.30
12233;DHT22;6179;51.748;8.728;2022-12-26T01:11:20;10.60;98.30
12233;DHT22;6179;51.748;8.728;2022-12-26T01:17:39;10.30;98.30
12233;DHT22;6179;51.748;8.728;2022-12-26T01:23:40;10.60;98.30
12233;DHT22;6179;51.748;8.728;2022-12-26T01:29:41;10.30;98.30
12233;DHT22;6179;51.748;8.728;2022-12-26T01:35:59;10.60;98.30
12233;DHT22;6179;51.748;8.728;2022-12-26T01:42:00;10.70;98.30
12233;DHT22;6179;51.748;8.728;2022-12-26T01:48:14;10.70;98.30
12233;DHT22;6179;51.748;8.728;2022-12-26T01:54:20;10.60;98.30
12233;DHT22;6179;51.748;8.728;2022-12-26T02:00:23;10.70;98.30
12233;DHT22;6179;51.748;8.728;2022-12-26T02:06:23;10.80;98.30
12233;DHT22;6179;51.748;8.728;2022-12-26T02:12:28;11.10;98.30
12233;DHT22;6179;51.748;8.728;2022-12-26T02:18:32;11.10;98.30
12233;DHT22;6179;51.748;8.728;2022-12-26T02:25:12;11.10;98.30
12233;DHT22;6179;51.748;8.728;2022-12-26T02:39:19;11.40;98.30
12233;DHT22;6179;51.748;8.728;2022-12-26T02:46:10;11.30;98.30
12233;DHT22;6179;51.748;8.728;2022-12-26T03:06:23;11.50;98.30
12233;DHT22;6179;51.748;8.728;2022-12-26T03:12:57;11.20;98.30
12233;DHT22;6179;51.748;8.728;2022-12-26T03:19:12;11.00;98.30
12233;DHT22;6179;51.748;8.728;2022-12-26T03:25:40;11.20;98.30
12233;DHT22;6179;51.748;8.728;2022-12-26T03:32:09;11.20;98.30
12233;DHT22;6179;51.748;8.728;2022-12-26T03:38:15;11.20;98.30
12233;DHT22;6179;51.748;8.728;2022-12-26T03:51:12;11.00;98.30
12233;DHT22;6179;51.748;8.728;2022-12-26T03:57:48;10.90;98.30
12233;DHT22;6179;51.748;8.728;2022-12-26T04:04:13;11.00;98.30
12233;DHT22;6179;51.748;8.728;2022-12-26T04:10:46;10.80;98.30
12233;DHT22;6179;51.748;8.728;2022-12-26T04:23:42;10.90;98.30
12233;DHT22;6179;51.748;8.728;2022-12-26T04:30:05;10.90;98.30
12233;DHT22;6179;51.748;8.728;2022-12-26T04:36:32;10.80;98.30
12233;DHT22;6179;51.748;8.728;2022-12-26T04:42:59;11.10;98.30
12233;DHT22;6179;51.748;8.728;2022-12-26T04:49:20;11.00;98.30
12233;DHT22;6179;51.748;8.728;2022-12-26T04:55:40;11.10;98.30
12233;DHT22;6179;51.748;8.728;2022-12-26T05:01:40;11.10;98.30
12233;DHT22;6179;51.748;8.728;2022-12-26T05:08:00;10.90;98.30
12233;DHT22;6179;51.748;8.728;2022-12-26T05:14:19;10.80;98.30
12233;DHT22;6179;51.748;8.728;2022-12-26T05:20:20;10.60;98.30
12233;DHT22;6179;51.748;8.728;2022-12-26T05:26:39;10.70;98.30
12233;DHT22;6179;51.748;8.728;2022-12-26T05:32:59;10.50;98.30
12233;DHT22;6179;51.748;8.728;2022-12-26T05:39:18;10.60;98.30
12233;DHT22;6179;51.748;8.728;2022-12-26T05:45:19;10.60;98.30
12233;DHT22;6179;51.748;8.728;2022-12-26T05:51:20;10.40;98.30
12233;DHT22;6179;51.748;8.728;2022-12-26T05:57:21;10.50;98.30
12233;DHT22;6179;51.748;8.728;2022-12-26T06:03:22;10.60;98.30
12233;DHT22;6179;51.748;8.728;2022-12-26T06:09:23;10.80;98.30
12233;DHT22;6179;51.748;8.728;2022-12-26T06:15:23;10.50;98.30
12233;DHT22;6179;51.748;8.728;2022-12-26T06:21:24;10.70;98.30
12233;DHT22;6179;51.748;8.728;2022-12-26T06:27:25;10.20;98.30
12233;DHT22;6179;51.748;8.728;2022-12-26T06:33:26;10.30;98.30
12233;DHT22;6179;51.748;8.728;2022-12-26T06:39:27;10.50;98.30
12233;DHT22;6179;51.748;8.728;2022-12-26T06:45:27;10.40;98.30
12233;DHT22;6179;51.748;8.728;2022-12-26T06:51:28;10.70;98.30
12233;DHT22;6179;51.748;8.728;2022-12-26T06:57:29;10.30;98.30
12233;DHT22;6179;51.748;8.728;2022-12-26T07:03:30;10.40;98.30
12233;DHT22;6179;51.748;8.728;2022-12-26T07:09:31;10.60;98.30
12233;DHT22;6179;51.748;8.728;2022-12-26T07:15:31;10.70;98.30
12233;DHT22;6179;51.748;8.728;2022-12-26T07:21:32;10.50;98.30
12233;DHT22;6179;51.748;8.728;2022-12-26T07:27:33;10.10;98.30
12233;DHT22;6179;51.748;8.728;2022-12-26T07:33:34;9.90;98.30
12233;DHT22;6179;51.748;8.728;2022-12-26T07:39:35;10.30;98.30
12233;DHT22;6179;51.748;8.728;2022-12-26T07:45:37;9.80;98.30
12233;DHT22;6179;51.748;8.728;2022-12-26T07:51:37;9.80;98.30
12233;DHT22;6179;51.748;8.728;2022-12-26T07:57:38;10.00;98.30
12233;DHT22;6179;51.748;8.728;2022-12-26T08:03:39;10.00;98.30
12233;DHT22;6179;51.748;8.728;2022-12-26T08:09:40;9.90;98.30
12233;DHT22;6179;51.748;8.728;2022-12-26T08:15:42;9.50;98.30
12233;DHT22;6179;51.748;8.728;2022-12-26T08:21:43;9.50;98.30
12233;DHT22;6179;51.748;8.728;2022-12-26T08:27:43;9.60;98.30
12233;DHT22;6179;51.748;8.728;2022-12-26T08:33:44;10.10;98.30
12233;DHT22;6179;51.748;8.728;2022-12-26T08:39:45;9.80;98.30
12233;DHT22;6179;51.748;8.728;2022-12-26T08:45:46;9.80;98.30
12233;DHT22;6179;51.748;8.728;2022-12-26T08:51:47;9.80;98.30
12233;DHT22;6179;51.748;8.728;2022-12-26T08:57:47;10.10;98.30
12233;DHT22;6179;51.748;8.728;2022-12-26T09:03:52;9.90;98.30
12233;DHT22;6179;51.748;8.728;2022-12-26T09:09:54;10.10;98.30
12233;DHT22;6179;51.748;8.728;2022-12-26T09:15:54;10.30;98.30
12233;DHT22;6179;51.748;8.728;2022-12-26T09:21:55;10.60;98.30
12233;DHT22;6179;51.748;8.728;2022-12-26T09:28:14;10.30;98.30
12233;DHT22;6179;51.748;8.728;2022-12-26T09:34:15;10.40;98.30
12233;DHT22;6179;51.748;8.728;2022-12-26T09:40:22;10.50;98.30
12233;DHT22;6179;51.748;8.728;2022-12-26T09:46:43;10.70;98.30
12233;DHT22;6179;51.748;8.728;2022-12-26T09:53:14;10.40;98.30
12233;DHT22;6179;51.748;8.728;2022-12-26T09:59:30;10.60;98.30
12233;DHT22;6179;51.748;8.728;2022-12-26T10:05:42;10.70;98.30
12233;DHT22;6179;51.748;8.728;2022-12-26T10:24:24;10.80;98.30
12233;DHT22;6179;51.748;8.728;2022-12-26T10:30:36;10.60;98.30
12233;DHT22;6179;51.748;8.728;2022-12-26T10:42:58;10.70;98.30
12233;DHT22;6179;51.748;8.728;2022-12-26T10:49:03;10.80;98.30
12233;DHT22;6179;51.748;8.728;2022-12-26T10:55:05;11.10;98.30
12233;DHT22;6179;51.748;8.728;2022-12-26T11:07:30;11.00;98.30
12233;DHT22;6179;51.748;8.728;2022-12-26T11:13:41;11.00;98.30
12233;DHT22;6179;51.748;8.728;2022-12-26T11:19:46;10.80;98.30
12233;DHT22;6179;51.748;8.728;2022-12-26T11:25:51;11.00;98.30
12233;DHT22;6179;51.748;8.728;2022-12-26T11:32:01;10.90;98.30
12233;DHT22;6179;51.748;8.728;2022-12-26T11:38:05;10.90;98.30
12233;DHT22;6179;51.748;8.728;2022-12-26T11:44:21;10.90;98.30
12233;DHT22;6179;51.748;8.728;2022-12-26T11:50:28;10.90;98.30
12233;DHT22;6179;51.748;8.728;2022-12-26T11:56:30;10.90;98.30
12233;DHT22;6179;51.748;8.728;2022-12-26T12:02:31;11.20;98.30
12233;DHT22;6179;51.748;8.728;2022-12-26T12:15:31;11.00;98.30
12233;DHT22;6179;51.748;8.728;2022-12-26T12:28:59;11.10;98.30
12233;DHT22;6179;51.748;8.728;2022-12-26T12:36:02;10.80;98.30
12233;DHT22;6179;51.748;8.728;2022-12-26T13:01:37;10.50;98.30
12233;DHT22;6179;51.748;8.728;2022-12-26T13:07:45;10.70;98.30
12233;DHT22;6179;51.748;8.728;2022-12-26T13:14:19;10.70;98.30
12233;DHT22;6179;51.748;8.728;2022-12-26T13:20:43;10.40;98.30
12233;DHT22;6179;51.748;8.728;2022-12-26T13:26:59;10.60;98.30
12233;DHT22;6179;51.748;8.728;2022-12-26T13:33:04;10.50;98.30
12233;DHT22;6179;51.748;8.728;2022-12-26T13:45:45;10.60;98.30
12233;DHT22;6179;51.748;8.728;2022-12-26T13:51:49;10.60;98.30
12233;DHT22;6179;51.748;8.728;2022-12-26T13:58:10;10.80;98.30
12233;DHT22;6179;51.748;8.728;2022-12-26T14:04:44;10.60;98.30
12233;DHT22;6179;51.748;8.728;2022-12-26T14:18:18;9.90;98.30
12233;DHT22;6179;51.748;8.728;2022-12-26T14:24:57;8.90;98.30
12233;DHT22;6179;51.748;8.728;2022-12-26T14:31:20;8.70;98.30
12233;DHT22;6179;51.748;8.728;2022-12-26T14:37:55;8.70;98.30
12233;DHT22;6179;51.748;8.728;2022-12-26T14:56:36;8.80;98.30
12233;DHT22;6179;51.748;8.728;2022-12-26T15:02:38;9.00;98.30
12233;DHT22;6179;51.748;8.728;2022-12-26T15:15:57;8.00;98.30
12233;DHT22;6179;51.748;8.728;2022-12-26T15:42:07;7.40;98.30
12233;DHT22;6179;51.748;8.728;2022-12-26T15:54:50;7.10;98.30
12233;DHT22;6179;51.748;8.728;2022-12-26T16:01:00;7.40;98.30
12233;DHT22;6179;51.748;8.728;2022-12-26T16:14:12;7.20;98.30
12233;DHT22;6179;51.748;8.728;2022-12-26T16:26:44;7.20;98.30
12233;DHT22;6179;51.748;8.728;2022-12-26T16:32:46;7.40;98.30
12233;DHT22;6179;51.748;8.728;2022-12-26T16:38:48;7.40;98.30
12233;DHT22;6179;51.748;8.728;2022-12-26T16:44:54;7.50;98.30
12233;DHT22;6179;51.748;8.728;2022-12-26T16:51:04;7.40;98.30
12233;DHT22;6179;51.748;8.728;2022-12-26T17:03:27;7.30;98.30
12233;DHT22;6179;51.748;8.728;2022-12-26T17:09:53;7.20;98.30
12233;DHT22;6179;51.748;8.728;2022-12-26T17:15:59;6.90;98.30
12233;DHT22;6179;51.748;8.728;2022-12-26T17:34:19;7.10;98.30
12233;DHT22;6179;51.748;8.728;2022-12-26T17:40:32;6.90;98.30
12233;DHT22;6179;51.748;8.728;2022-12-26T17:46:35;6.50;98.30
12233;DHT22;6179;51.748;8.728;2022-12-26T17:52:36;6.10;98.30
12233;DHT22;6179;51.748;8.728;2022-12-26T17:58:37;6.00;98.30
12233;DHT22;6179;51.748;8.728;2022-12-26T18:04:39;5.90;98.30
12233;DHT22;6179;51.748;8.728;2022-12-26T18:10:39;5.90;98.30
12233;DHT22;6179;51.748;8.728;2022-12-26T18:16:40;5.70;98.30
12233;DHT22;6179;51.748;8.728;2022-12-26T18:22:41;5.50;98.30
12233;DHT22;6179;51.748;8.728;2022-12-26T18:28:42;5.70;98.30
12233;DHT22;6179;51.748;8.728;2022-12-26T18:34:43;5.60;98.30
12233;DHT22;6179;51.748;8.728;2022-12-26T18:40:47;5.40;98.30
12233;DHT22;6179;51.748;8.728;2022-12-26T18:46:49;5.70;98.30
12233;DHT22;6179;51.748;8.728;2022-12-26T18:52:51;5.90;98.30
12233;DHT22;6179;51.748;8.728;2022-12-26T18:58:51;5.50;98.30
12233;DHT22;6179;51.748;8.728;2022-12-26T19:04:52;5.10;98.30
12233;DHT22;6179;51.748;8.728;2022-12-26T19:10:53;5.20;98.30
12233;DHT22;6179;51.748;8.728;2022-12-26T19:16:54;4.90;98.30
12233;DHT22;6179;51.748;8.728;2022-12-26T19:22:55;5.00;98.30
12233;DHT22;6179;51.748;8.728;2022-12-26T19:28:56;4.80;98.30
12233;DHT22;6179;51.748;8.728;2022-12-26T19:34:56;5.00;98.30
12233;DHT22;6179;51.748;8.728;2022-12-26T19:41:12;5.10;98.30
12233;DHT22;6179;51.748;8.728;2022-12-26T19:47:14;5.00;98.30
12233;DHT22;6179;51.748;8.728;2022-12-26T19:53:14;5.00;98.30
12233;DHT22;6179;51.748;8.728;2022-12-26T19:59:16;5.10;98.30
12233;DHT22;6179;51.748;8.728;2022-12-26T20:05:16;5.10;98.30
12233;DHT22;6179;51.748;8.728;2022-12-26T20:11:23;4.70;98.30
12233;DHT22;6179;51.748;8.728;2022-12-26T20:17:28;4.70;98.30
12233;DHT22;6179;51.748;8.728;2022-12-26T20:23:29;5.00;98.30
12233;DHT22;6179;51.748;8.728;2022-12-26T20:29:29;5.00;98.30
12233;DHT22;6179;51.748;8.728;2022-12-26T20:35:30;4.90;98.30
12233;DHT22;6179;51.748;8.728;2022-12-26T20:41:32;4.90;98.30
12233;DHT22;6179;51.748;8.728;2022-12-26T20:47:34;4.80;98.30
12233;DHT22;6179;51.748;8.728;2022-12-26T20:53:34;4.90;98.30
12233;DHT22;6179;51.748;8.728;2022-12-26T20:59:35;4.70;98.30
12233;DHT22;6179;51.748;8.728;2022-12-26T21:05:36;4.80;98.30
12233;DHT22;6179;51.748;8.728;2022-12-26T21:11:39;4.60;98.30
12233;DHT22;6179;51.748;8.728;2022-12-26T21:17:41;4.60;98.30
12233;DHT22;6179;51.748;8.728;2022-12-26T21:23:42;4.40;98.30
12233;DHT22;6179;51.748;8.728;2022-12-26T21:29:44;4.30;98.30
12233;DHT22;6179;51.748;8.728;2022-12-26T21:35:44;4.40;98.30
12233;DHT22;6179;51.748;8.728;2022-12-26T21:41:50;4.40;98.30
12233;DHT22;6179;51.748;8.728;2022-12-26T21:47:51;4.10;98.30
12233;DHT22;6179;51.748;8.728;2022-12-26T21:53:52;4.10;98.30
12233;DHT22;6179;51.748;8.728;2022-12-26T22:00:13;4.10;98.30
12233;DHT22;6179;51.748;8.728;2022-12-26T22:06:15;4.10;98.30
12233;DHT22;6179;51.748;8.728;2022-12-26T22:12:15;4.30;98.30
12233;DHT22;6179;51.748;8.728;2022-12-26T22:18:46;4.10;98.30
12233;DHT22;6179;51.748;8.728;2022-12-26T22:24:47;4.20;98.30
12233;DHT22;6179;51.748;8.728;2022-12-26T22:30:48;4.40;98.30
12233;DHT22;6179;51.748;8.728;2022-12-26T22:36:49;4.00;98.30
12233;DHT22;6179;51.748;8.728;2022-12-26T22:42:53;4.10;98.30
12233;DHT22;6179;51.748;8.728;2022-12-26T22:48:54;4.00;98.30
12233;DHT22;6179;51.748;8.728;2022-12-26T22:54:55;4.30;98.30
12233;DHT22;6179;51.748;8.728;2022-12-26T23:00:56;4.30;98.30
12233;DHT22;6179;51.748;8.728;2022-12-26T23:06:58;3.80;98.30
12233;DHT22;6179;51.748;8.728;2022-12-26T23:13:00;4.00;98.30
12233;DHT22;6179;51.748;8.728;2022-12-26T23:19:31;4.20;98.30
12233;DHT22;6179;51.748;8.728;2022-12-26T23:26:04;4.50;98.30
12233;DHT22;6179;51.748;8.728;2022-12-26T23:32:07;4.40;97.60
12233;DHT22;6179;51.748;8.728;2022-12-26T23:38:09;4.20;97.30
12233;DHT22;6179;51.748;8.728;2022-12-26T23:44:10;4.30;97.60
12233;DHT22;6179;51.748;8.728;2022-12-26T23:50:12;4.10;97.90
12233;DHT22;6179;51.748;8.728;2022-12-26T23:56:14;4.20;97.70
